sensor_id;sensor_type;location;lat;lon;timestamp;P1;durP1;ratioP1;P2;durP2;ratioP2
71303;SDS011;59091;47.446;19.148;2024-03-08T00:01:30;29.42;;;16.08;;
71303;SDS011;59091;47.446;19.148;2024-03-08T00:03:55;29.00;;;15.77;;
71303;SDS011;59091;47.446;19.148;2024-03-08T00:06:21;27.33;;;16.73;;
71303;SDS011;59091;47.446;19.148;2024-03-08T00:08:46;28.60;;;16.08;;
71303;SDS011;59091;47.446;19.148;2024-03-08T00:11:12;25.80;;;16.10;;
71303;SDS011;59091;47.446;19.148;2024-03-08T00:13:37;26.52;;;16.48;;
71303;SDS011;59091;47.446;19.148;2024-03-08T00:16:03;32.42;;;16.42;;
71303;SDS011;59091;47.446;19.148;2024-03-08T00:18:28;30.25;;;16.75;;
71303;SDS011;59091;47.446;19.148;2024-03-08T00:20:54;26.40;;;15.23;;
71303;SDS011;59091;47.446;19.148;2024-03-08T00:23:20;25.42;;;15.93;;
71303;SDS011;59091;47.446;19.148;2024-03-08T00:25:46;28.27;;;15.60;;
71303;SDS011;59091;47.446;19.148;2024-03-08T00:28:11;29.40;;;17.08;;
71303;SDS011;59091;47.446;19.148;2024-03-08T00:30:40;30.42;;;16.52;;
71303;SDS011;59091;47.446;19.148;2024-03-08T00:33:05;26.98;;;15.70;;
71303;SDS011;59091;47.446;19.148;2024-03-08T00:35:30;23.70;;;15.48;;
71303;SDS011;59091;47.446;19.148;2024-03-08T00:37:56;30.42;;;17.13;;
71303;SDS011;59091;47.446;19.148;2024-03-08T00:40:21;26.52;;;16.15;;
71303;SDS011;59091;47.446;19.148;2024-03-08T00:42:47;29.00;;;16.48;;
71303;SDS011;59091;47.446;19.148;2024-03-08T00:45:13;27.10;;;16.20;;
71303;SDS011;59091;47.446;19.148;2024-03-08T00:47:38;27.27;;;16.48;;
71303;SDS011;59091;47.446;19.148;2024-03-08T00:50:04;28.70;;;16.50;;
71303;SDS011;59091;47.446;19.148;2024-03-08T00:52:30;27.77;;;16.63;;
71303;SDS011;59091;47.446;19.148;2024-03-08T00:54:55;30.23;;;16.73;;
71303;SDS011;59091;47.446;19.148;2024-03-08T00:57:21;29.73;;;16.83;;
71303;SDS011;59091;47.446;19.148;2024-03-08T00:59:47;31.35;;;17.17;;
71303;SDS011;59091;47.446;19.148;2024-03-08T01:02:13;30.60;;;17.70;;
71303;SDS011;59091;47.446;19.148;2024-03-08T01:04:38;29.60;;;17.63;;
71303;SDS011;59091;47.446;19.148;2024-03-08T01:07:04;31.95;;;18.48;;
71303;SDS011;59091;47.446;19.148;2024-03-08T01:09:29;31.13;;;17.75;;
71303;SDS011;59091;47.446;19.148;2024-03-08T01:11:55;35.13;;;17.98;;
71303;SDS011;59091;47.446;19.148;2024-03-08T01:14:21;31.00;;;18.15;;
71303;SDS011;59091;47.446;19.148;2024-03-08T01:16:47;34.17;;;19.05;;
71303;SDS011;59091;47.446;19.148;2024-03-08T01:19:14;34.38;;;18.15;;
71303;SDS011;59091;47.446;19.148;2024-03-08T01:21:40;34.80;;;19.23;;
71303;SDS011;59091;47.446;19.148;2024-03-08T01:24:06;35.83;;;19.90;;
71303;SDS011;59091;47.446;19.148;2024-03-08T01:26:31;34.60;;;19.73;;
71303;SDS011;59091;47.446;19.148;2024-03-08T01:28:59;37.70;;;20.05;;
71303;SDS011;59091;47.446;19.148;2024-03-08T01:31:24;40.08;;;20.23;;
71303;SDS011;59091;47.446;19.148;2024-03-08T01:33:50;37.92;;;20.13;;
71303;SDS011;59091;47.446;19.148;2024-03-08T01:36:15;43.90;;;22.17;;
71303;SDS011;59091;47.446;19.148;2024-03-08T01:38:42;40.13;;;21.90;;
71303;SDS011;59091;47.446;19.148;2024-03-08T01:41:07;41.85;;;22.17;;
71303;SDS011;59091;47.446;19.148;2024-03-08T01:43:34;45.15;;;21.10;;
71303;SDS011;59091;47.446;19.148;2024-03-08T01:45:59;44.78;;;23.17;;
71303;SDS011;59091;47.446;19.148;2024-03-08T01:48:26;43.15;;;23.58;;
71303;SDS011;59091;47.446;19.148;2024-03-08T01:50:54;42.63;;;23.55;;
71303;SDS011;59091;47.446;19.148;2024-03-08T01:53:21;44.15;;;23.40;;
71303;SDS011;59091;47.446;19.148;2024-03-08T01:55:48;46.13;;;23.50;;
71303;SDS011;59091;47.446;19.148;2024-03-08T01:58:14;45.28;;;23.48;;
71303;SDS011;59091;47.446;19.148;2024-03-08T02:00:41;49.50;;;23.02;;
71303;SDS011;59091;47.446;19.148;2024-03-08T02:03:08;46.60;;;23.17;;
71303;SDS011;59091;47.446;19.148;2024-03-08T02:05:34;52.67;;;25.08;;
71303;SDS011;59091;47.446;19.148;2024-03-08T02:08:01;44.33;;;24.23;;
71303;SDS011;59091;47.446;19.148;2024-03-08T02:10:27;45.85;;;23.63;;
71303;SDS011;59091;47.446;19.148;2024-03-08T02:12:53;44.88;;;23.65;;
71303;SDS011;59091;47.446;19.148;2024-03-08T02:15:19;49.13;;;24.42;;
71303;SDS011;59091;47.446;19.148;2024-03-08T02:17:46;48.17;;;24.60;;
71303;SDS011;59091;47.446;19.148;2024-03-08T02:20:12;50.10;;;24.23;;
71303;SDS011;59091;47.446;19.148;2024-03-08T02:22:38;49.30;;;24.17;;
71303;SDS011;59091;47.446;19.148;2024-03-08T02:25:04;50.75;;;24.77;;
71303;SDS011;59091;47.446;19.148;2024-03-08T02:27:30;49.72;;;25.05;;
71303;SDS011;59091;47.446;19.148;2024-03-08T02:29:56;48.28;;;24.90;;
71303;SDS011;59091;47.446;19.148;2024-03-08T02:32:25;46.35;;;23.45;;
71303;SDS011;59091;47.446;19.148;2024-03-08T02:34:51;53.72;;;25.67;;
71303;SDS011;59091;47.446;19.148;2024-03-08T02:37:16;53.20;;;24.33;;
71303;SDS011;59091;47.446;19.148;2024-03-08T02:39:43;47.35;;;24.13;;
71303;SDS011;59091;47.446;19.148;2024-03-08T02:42:08;50.05;;;25.42;;
71303;SDS011;59091;47.446;19.148;2024-03-08T02:44:34;47.83;;;24.98;;
71303;SDS011;59091;47.446;19.148;2024-03-08T02:46:59;49.45;;;24.42;;
71303;SDS011;59091;47.446;19.148;2024-03-08T02:49:25;45.90;;;24.17;;
71303;SDS011;59091;47.446;19.148;2024-03-08T02:51:52;51.70;;;26.13;;
71303;SDS011;59091;47.446;19.148;2024-03-08T02:54:17;45.03;;;24.08;;
71303;SDS011;59091;47.446;19.148;2024-03-08T02:56:44;50.33;;;25.30;;
71303;SDS011;59091;47.446;19.148;2024-03-08T02:59:11;51.50;;;25.05;;
71303;SDS011;59091;47.446;19.148;2024-03-08T03:01:37;55.83;;;24.65;;
71303;SDS011;59091;47.446;19.148;2024-03-08T03:04:03;52.38;;;25.08;;
71303;SDS011;59091;47.446;19.148;2024-03-08T03:06:29;49.25;;;24.77;;
71303;SDS011;59091;47.446;19.148;2024-03-08T03:08:54;49.58;;;24.73;;
71303;SDS011;59091;47.446;19.148;2024-03-08T03:11:22;51.97;;;25.65;;
71303;SDS011;59091;47.446;19.148;2024-03-08T03:13:48;53.47;;;25.23;;
71303;SDS011;59091;47.446;19.148;2024-03-08T03:16:17;52.67;;;26.20;;
71303;SDS011;59091;47.446;19.148;2024-03-08T03:18:44;57.53;;;26.00;;
71303;SDS011;59091;47.446;19.148;2024-03-08T03:21:09;50.40;;;25.10;;
71303;SDS011;59091;47.446;19.148;2024-03-08T03:23:34;51.85;;;25.27;;
71303;SDS011;59091;47.446;19.148;2024-03-08T03:26:01;50.47;;;24.48;;
71303;SDS011;59091;47.446;19.148;2024-03-08T03:28:27;49.50;;;25.58;;
71303;SDS011;59091;47.446;19.148;2024-03-08T03:30:53;54.78;;;25.95;;
71303;SDS011;59091;47.446;19.148;2024-03-08T03:33:18;51.50;;;24.30;;
71303;SDS011;59091;47.446;19.148;2024-03-08T03:35:44;55.10;;;25.33;;
71303;SDS011;59091;47.446;19.148;2024-03-08T03:38:10;57.78;;;24.95;;
71303;SDS011;59091;47.446;19.148;2024-03-08T03:40:36;53.40;;;25.63;;
71303;SDS011;59091;47.446;19.148;2024-03-08T03:43:03;45.70;;;24.60;;
71303;SDS011;59091;47.446;19.148;2024-03-08T03:45:28;47.05;;;24.05;;
71303;SDS011;59091;47.446;19.148;2024-03-08T03:47:54;54.95;;;24.65;;
71303;SDS011;59091;47.446;19.148;2024-03-08T03:50:20;49.25;;;24.80;;
71303;SDS011;59091;47.446;19.148;2024-03-08T03:52:46;52.60;;;24.30;;
71303;SDS011;59091;47.446;19.148;2024-03-08T03:55:12;50.35;;;25.60;;
71303;SDS011;59091;47.446;19.148;2024-03-08T03:57:39;50.17;;;24.73;;
71303;SDS011;59091;47.446;19.148;2024-03-08T04:00:05;48.67;;;25.13;;
71303;SDS011;59091;47.446;19.148;2024-03-08T04:02:34;45.60;;;23.40;;
71303;SDS011;59091;47.446;19.148;2024-03-08T04:05:01;49.08;;;24.38;;
71303;SDS011;59091;47.446;19.148;2024-03-08T04:07:27;51.03;;;24.83;;
71303;SDS011;59091;47.446;19.148;2024-03-08T04:09:52;49.83;;;25.13;;
71303;SDS011;59091;47.446;19.148;2024-03-08T04:12:18;56.63;;;25.50;;
71303;SDS011;59091;47.446;19.148;2024-03-08T04:14:43;55.72;;;26.10;;
71303;SDS011;59091;47.446;19.148;2024-03-08T04:17:09;48.30;;;26.05;;
71303;SDS011;59091;47.446;19.148;2024-03-08T04:19:36;51.78;;;24.92;;
71303;SDS011;59091;47.446;19.148;2024-03-08T04:22:01;48.63;;;24.13;;
71303;SDS011;59091;47.446;19.148;2024-03-08T04:24:27;51.70;;;25.27;;
71303;SDS011;59091;47.446;19.148;2024-03-08T04:26:52;48.25;;;24.73;;
71303;SDS011;59091;47.446;19.148;2024-03-08T04:29:18;49.35;;;24.33;;
71303;SDS011;59091;47.446;19.148;2024-03-08T04:31:44;54.30;;;25.58;;
71303;SDS011;59091;47.446;19.148;2024-03-08T04:34:10;56.25;;;25.60;;
71303;SDS011;59091;47.446;19.148;2024-03-08T04:36:35;55.53;;;25.95;;
71303;SDS011;59091;47.446;19.148;2024-03-08T04:39:01;49.20;;;24.52;;
71303;SDS011;59091;47.446;19.148;2024-03-08T04:41:27;51.17;;;25.23;;
71303;SDS011;59091;47.446;19.148;2024-03-08T04:43:52;53.50;;;24.27;;
71303;SDS011;59091;47.446;19.148;2024-03-08T04:46:18;52.08;;;25.73;;
71303;SDS011;59091;47.446;19.148;2024-03-08T04:48:44;54.03;;;26.45;;
71303;SDS011;59091;47.446;19.148;2024-03-08T04:51:09;51.55;;;24.90;;
71303;SDS011;59091;47.446;19.148;2024-03-08T04:53:35;52.22;;;25.52;;
71303;SDS011;59091;47.446;19.148;2024-03-08T04:56:00;56.38;;;26.67;;
71303;SDS011;59091;47.446;19.148;2024-03-08T04:58:31;55.65;;;26.45;;
71303;SDS011;59091;47.446;19.148;2024-03-08T05:00:58;53.53;;;25.25;;
71303;SDS011;59091;47.446;19.148;2024-03-08T05:03:24;54.40;;;25.98;;
71303;SDS011;59091;47.446;19.148;2024-03-08T05:05:51;52.28;;;26.27;;
71303;SDS011;59091;47.446;19.148;2024-03-08T05:08:17;55.40;;;25.50;;
71303;SDS011;59091;47.446;19.148;2024-03-08T05:10:43;51.92;;;25.60;;
71303;SDS011;59091;47.446;19.148;2024-03-08T05:13:09;52.10;;;25.05;;
71303;SDS011;59091;47.446;19.148;2024-03-08T05:15:35;50.92;;;25.27;;
71303;SDS011;59091;47.446;19.148;2024-03-08T05:18:01;48.10;;;25.85;;
71303;SDS011;59091;47.446;19.148;2024-03-08T05:20:27;52.05;;;24.83;;
71303;SDS011;59091;47.446;19.148;2024-03-08T05:22:52;61.40;;;27.48;;
71303;SDS011;59091;47.446;19.148;2024-03-08T05:25:18;56.67;;;26.33;;
71303;SDS011;59091;47.446;19.148;2024-03-08T05:27:43;50.47;;;24.60;;
71303;SDS011;59091;47.446;19.148;2024-03-08T05:30:09;50.03;;;25.80;;
71303;SDS011;59091;47.446;19.148;2024-03-08T05:32:40;54.30;;;25.27;;
71303;SDS011;59091;47.446;19.148;2024-03-08T05:35:09;49.28;;;25.40;;
71303;SDS011;59091;47.446;19.148;2024-03-08T05:37:38;55.65;;;25.27;;
71303;SDS011;59091;47.446;19.148;2024-03-08T05:40:05;45.90;;;23.75;;
71303;SDS011;59091;47.446;19.148;2024-03-08T05:42:34;52.40;;;25.65;;
71303;SDS011;59091;47.446;19.148;2024-03-08T05:45:00;51.38;;;25.27;;
71303;SDS011;59091;47.446;19.148;2024-03-08T05:47:25;52.65;;;25.75;;
71303;SDS011;59091;47.446;19.148;2024-03-08T05:49:51;51.78;;;25.55;;
71303;SDS011;59091;47.446;19.148;2024-03-08T05:52:18;58.92;;;27.40;;
71303;SDS011;59091;47.446;19.148;2024-03-08T05:54:44;57.33;;;26.15;;
71303;SDS011;59091;47.446;19.148;2024-03-08T05:57:10;52.50;;;25.38;;
71303;SDS011;59091;47.446;19.148;2024-03-08T05:59:36;52.00;;;25.90;;
71303;SDS011;59091;47.446;19.148;2024-03-08T06:02:01;59.45;;;26.75;;
71303;SDS011;59091;47.446;19.148;2024-03-08T06:04:28;50.53;;;25.33;;
71303;SDS011;59091;47.446;19.148;2024-03-08T06:06:54;54.08;;;26.77;;
71303;SDS011;59091;47.446;19.148;2024-03-08T06:09:22;53.83;;;25.20;;
71303;SDS011;59091;47.446;19.148;2024-03-08T06:11:48;56.45;;;26.13;;
71303;SDS011;59091;47.446;19.148;2024-03-08T06:14:14;55.03;;;25.95;;
71303;SDS011;59091;47.446;19.148;2024-03-08T06:16:44;51.00;;;25.33;;
71303;SDS011;59091;47.446;19.148;2024-03-08T06:19:12;51.05;;;25.58;;
71303;SDS011;59091;47.446;19.148;2024-03-08T06:21:38;47.70;;;25.17;;
71303;SDS011;59091;47.446;19.148;2024-03-08T06:24:04;51.30;;;24.77;;
71303;SDS011;59091;47.446;19.148;2024-03-08T06:26:30;48.10;;;24.05;;
71303;SDS011;59091;47.446;19.148;2024-03-08T06:28:55;52.55;;;25.10;;
71303;SDS011;59091;47.446;19.148;2024-03-08T06:31:21;50.10;;;25.17;;
71303;SDS011;59091;47.446;19.148;2024-03-08T06:33:47;50.20;;;25.00;;
71303;SDS011;59091;47.446;19.148;2024-03-08T06:36:15;51.67;;;24.40;;
71303;SDS011;59091;47.446;19.148;2024-03-08T06:38:43;51.60;;;25.13;;
71303;SDS011;59091;47.446;19.148;2024-03-08T06:41:12;53.67;;;25.50;;
71303;SDS011;59091;47.446;19.148;2024-03-08T06:43:40;51.33;;;25.63;;
71303;SDS011;59091;47.446;19.148;2024-03-08T06:46:09;50.13;;;25.02;;
71303;SDS011;59091;47.446;19.148;2024-03-08T06:48:37;48.53;;;24.52;;
71303;SDS011;59091;47.446;19.148;2024-03-08T06:51:06;49.72;;;25.90;;
71303;SDS011;59091;47.446;19.148;2024-03-08T06:53:31;48.78;;;25.00;;
71303;SDS011;59091;47.446;19.148;2024-03-08T06:56:00;53.10;;;25.48;;
71303;SDS011;59091;47.446;19.148;2024-03-08T06:58:27;55.10;;;25.42;;
71303;SDS011;59091;47.446;19.148;2024-03-08T07:00:53;50.67;;;24.85;;
71303;SDS011;59091;47.446;19.148;2024-03-08T07:03:18;54.33;;;25.40;;
71303;SDS011;59091;47.446;19.148;2024-03-08T07:05:44;56.22;;;25.95;;
71303;SDS011;59091;47.446;19.148;2024-03-08T07:08:10;51.13;;;25.40;;
71303;SDS011;59091;47.446;19.148;2024-03-08T07:10:36;54.28;;;24.60;;
71303;SDS011;59091;47.446;19.148;2024-03-08T07:13:02;53.10;;;26.52;;
71303;SDS011;59091;47.446;19.148;2024-03-08T07:15:28;53.00;;;24.75;;
71303;SDS011;59091;47.446;19.148;2024-03-08T07:17:54;50.67;;;24.40;;
71303;SDS011;59091;47.446;19.148;2024-03-08T07:20:20;54.20;;;24.58;;
71303;SDS011;59091;47.446;19.148;2024-03-08T07:22:46;57.80;;;26.85;;
71303;SDS011;59091;47.446;19.148;2024-03-08T07:25:18;54.78;;;25.05;;
71303;SDS011;59091;47.446;19.148;2024-03-08T07:27:50;49.90;;;22.42;;
71303;SDS011;59091;47.446;19.148;2024-03-08T07:30:17;48.95;;;24.88;;
71303;SDS011;59091;47.446;19.148;2024-03-08T07:33:01;50.90;;;25.60;;
71303;SDS011;59091;47.446;19.148;2024-03-08T07:35:27;50.08;;;25.00;;
71303;SDS011;59091;47.446;19.148;2024-03-08T07:37:54;47.53;;;20.88;;
71303;SDS011;59091;47.446;19.148;2024-03-08T07:40:20;41.80;;;21.17;;
71303;SDS011;59091;47.446;19.148;2024-03-08T07:42:46;48.05;;;23.65;;
71303;SDS011;59091;47.446;19.148;2024-03-08T07:45:11;57.05;;;26.63;;
71303;SDS011;59091;47.446;19.148;2024-03-08T07:47:37;55.38;;;25.73;;
71303;SDS011;59091;47.446;19.148;2024-03-08T07:50:03;53.25;;;26.23;;
71303;SDS011;59091;47.446;19.148;2024-03-08T07:52:29;60.15;;;27.73;;
71303;SDS011;59091;47.446;19.148;2024-03-08T07:54:57;61.13;;;27.20;;
71303;SDS011;59091;47.446;19.148;2024-03-08T07:57:22;55.35;;;26.50;;
71303;SDS011;59091;47.446;19.148;2024-03-08T07:59:48;55.33;;;26.52;;
71303;SDS011;59091;47.446;19.148;2024-03-08T08:02:14;56.20;;;25.98;;
71303;SDS011;59091;47.446;19.148;2024-03-08T08:04:39;61.53;;;27.10;;
71303;SDS011;59091;47.446;19.148;2024-03-08T08:07:05;63.45;;;27.33;;
71303;SDS011;59091;47.446;19.148;2024-03-08T08:09:32;60.20;;;27.40;;
71303;SDS011;59091;47.446;19.148;2024-03-08T08:12:00;59.80;;;28.80;;
71303;SDS011;59091;47.446;19.148;2024-03-08T08:14:27;60.08;;;27.85;;
71303;SDS011;59091;47.446;19.148;2024-03-08T08:16:54;58.45;;;27.52;;
71303;SDS011;59091;47.446;19.148;2024-03-08T08:19:20;65.03;;;27.88;;
71303;SDS011;59091;47.446;19.148;2024-03-08T08:21:46;64.43;;;27.73;;
71303;SDS011;59091;47.446;19.148;2024-03-08T08:24:12;62.67;;;27.33;;
71303;SDS011;59091;47.446;19.148;2024-03-08T08:26:37;62.53;;;28.27;;
71303;SDS011;59091;47.446;19.148;2024-03-08T08:29:03;61.15;;;26.90;;
71303;SDS011;59091;47.446;19.148;2024-03-08T08:31:29;67.85;;;27.55;;
71303;SDS011;59091;47.446;19.148;2024-03-08T08:33:56;68.15;;;29.08;;
71303;SDS011;59091;47.446;19.148;2024-03-08T08:36:25;65.72;;;28.65;;
71303;SDS011;59091;47.446;19.148;2024-03-08T08:38:51;63.03;;;28.92;;
71303;SDS011;59091;47.446;19.148;2024-03-08T08:41:19;64.85;;;28.42;;
71303;SDS011;59091;47.446;19.148;2024-03-08T08:43:46;55.60;;;26.13;;
71303;SDS011;59091;47.446;19.148;2024-03-08T08:46:11;57.00;;;26.50;;
71303;SDS011;59091;47.446;19.148;2024-03-08T08:48:39;65.60;;;28.10;;
71303;SDS011;59091;47.446;19.148;2024-03-08T08:51:10;59.47;;;26.85;;
71303;SDS011;59091;47.446;19.148;2024-03-08T08:53:39;59.33;;;27.48;;
71303;SDS011;59091;47.446;19.148;2024-03-08T08:56:11;57.90;;;24.48;;
71303;SDS011;59091;47.446;19.148;2024-03-08T08:58:47;56.17;;;26.35;;
71303;SDS011;59091;47.446;19.148;2024-03-08T09:01:14;55.40;;;26.45;;
71303;SDS011;59091;47.446;19.148;2024-03-08T09:03:39;61.20;;;27.65;;
71303;SDS011;59091;47.446;19.148;2024-03-08T09:06:08;54.22;;;26.27;;
71303;SDS011;59091;47.446;19.148;2024-03-08T09:08:38;57.38;;;25.52;;
71303;SDS011;59091;47.446;19.148;2024-03-08T09:11:04;57.78;;;26.67;;
71303;SDS011;59091;47.446;19.148;2024-03-08T09:13:30;46.05;;;21.73;;
71303;SDS011;59091;47.446;19.148;2024-03-08T09:15:56;48.33;;;24.17;;
71303;SDS011;59091;47.446;19.148;2024-03-08T09:18:21;47.72;;;24.83;;
71303;SDS011;59091;47.446;19.148;2024-03-08T09:20:48;48.00;;;22.85;;
71303;SDS011;59091;47.446;19.148;2024-03-08T09:23:13;52.92;;;25.95;;
71303;SDS011;59091;47.446;19.148;2024-03-08T09:25:40;57.30;;;24.65;;
71303;SDS011;59091;47.446;19.148;2024-03-08T09:28:06;53.55;;;25.20;;
71303;SDS011;59091;47.446;19.148;2024-03-08T09:30:31;50.28;;;26.17;;
71303;SDS011;59091;47.446;19.148;2024-03-08T09:32:57;46.55;;;24.05;;
71303;SDS011;59091;47.446;19.148;2024-03-08T09:35:22;50.67;;;26.40;;
71303;SDS011;59091;47.446;19.148;2024-03-08T09:37:48;49.67;;;24.23;;
71303;SDS011;59091;47.446;19.148;2024-03-08T09:40:16;48.22;;;25.08;;
71303;SDS011;59091;47.446;19.148;2024-03-08T09:42:45;51.72;;;26.00;;
71303;SDS011;59091;47.446;19.148;2024-03-08T09:45:11;57.05;;;25.85;;
71303;SDS011;59091;47.446;19.148;2024-03-08T09:47:44;54.45;;;25.35;;
71303;SDS011;59091;47.446;19.148;2024-03-08T09:50:09;57.97;;;25.63;;
71303;SDS011;59091;47.446;19.148;2024-03-08T09:52:40;52.88;;;25.52;;
71303;SDS011;59091;47.446;19.148;2024-03-08T09:55:09;46.67;;;24.50;;
71303;SDS011;59091;47.446;19.148;2024-03-08T09:57:36;53.38;;;25.83;;
71303;SDS011;59091;47.446;19.148;2024-03-08T10:00:03;50.83;;;25.45;;
71303;SDS011;59091;47.446;19.148;2024-03-08T10:02:49;51.97;;;25.23;;
71303;SDS011;59091;47.446;19.148;2024-03-08T10:05:17;48.55;;;24.83;;
71303;SDS011;59091;47.446;19.148;2024-03-08T10:07:43;50.13;;;25.13;;
71303;SDS011;59091;47.446;19.148;2024-03-08T10:10:09;54.50;;;25.92;;
71303;SDS011;59091;47.446;19.148;2024-03-08T10:12:37;48.13;;;25.23;;
71303;SDS011;59091;47.446;19.148;2024-03-08T10:15:03;52.38;;;26.70;;
71303;SDS011;59091;47.446;19.148;2024-03-08T10:17:33;57.15;;;26.90;;
71303;SDS011;59091;47.446;19.148;2024-03-08T10:19:59;48.35;;;26.02;;
71303;SDS011;59091;47.446;19.148;2024-03-08T10:22:25;53.67;;;25.70;;
71303;SDS011;59091;47.446;19.148;2024-03-08T10:24:51;53.58;;;25.95;;
71303;SDS011;59091;47.446;19.148;2024-03-08T10:27:16;50.25;;;24.48;;
71303;SDS011;59091;47.446;19.148;2024-03-08T10:29:42;48.50;;;25.27;;
71303;SDS011;59091;47.446;19.148;2024-03-08T10:32:09;54.33;;;24.70;;
71303;SDS011;59091;47.446;19.148;2024-03-08T10:34:35;49.40;;;24.65;;
71303;SDS011;59091;47.446;19.148;2024-03-08T10:37:04;44.67;;;24.23;;
71303;SDS011;59091;47.446;19.148;2024-03-08T10:39:36;51.05;;;24.60;;
71303;SDS011;59091;47.446;19.148;2024-03-08T10:42:03;54.72;;;26.35;;
71303;SDS011;59091;47.446;19.148;2024-03-08T10:52:29;53.55;;;24.70;;
71303;SDS011;59091;47.446;19.148;2024-03-08T10:54:54;61.40;;;26.40;;
71303;SDS011;59091;47.446;19.148;2024-03-08T10:57:22;49.22;;;25.05;;
71303;SDS011;59091;47.446;19.148;2024-03-08T10:59:49;48.33;;;25.65;;
71303;SDS011;59091;47.446;19.148;2024-03-08T11:02:16;46.42;;;23.92;;
71303;SDS011;59091;47.446;19.148;2024-03-08T11:04:47;46.58;;;23.42;;
71303;SDS011;59091;47.446;19.148;2024-03-08T11:07:14;47.83;;;24.70;;
71303;SDS011;59091;47.446;19.148;2024-03-08T11:09:43;47.13;;;25.17;;
71303;SDS011;59091;47.446;19.148;2024-03-08T11:14:51;53.83;;;26.85;;
71303;SDS011;59091;47.446;19.148;2024-03-08T11:17:25;46.72;;;24.95;;
71303;SDS011;59091;47.446;19.148;2024-03-08T11:20:11;52.08;;;26.83;;
71303;SDS011;59091;47.446;19.148;2024-03-08T11:22:41;50.78;;;26.42;;
71303;SDS011;59091;47.446;19.148;2024-03-08T11:25:30;48.05;;;25.00;;
71303;SDS011;59091;47.446;19.148;2024-03-08T11:28:06;51.38;;;24.88;;
71303;SDS011;59091;47.446;19.148;2024-03-08T11:30:47;43.83;;;23.80;;
71303;SDS011;59091;47.446;19.148;2024-03-08T11:33:35;40.85;;;21.90;;
71303;SDS011;59091;47.446;19.148;2024-03-08T11:36:10;38.05;;;22.52;;
71303;SDS011;59091;47.446;19.148;2024-03-08T11:38:41;40.95;;;22.50;;
71303;SDS011;59091;47.446;19.148;2024-03-08T11:41:09;53.13;;;24.25;;
71303;SDS011;59091;47.446;19.148;2024-03-08T11:43:39;37.60;;;22.42;;
71303;SDS011;59091;47.446;19.148;2024-03-08T11:46:12;41.55;;;23.48;;
71303;SDS011;59091;47.446;19.148;2024-03-08T11:48:42;48.30;;;24.60;;
71303;SDS011;59091;47.446;19.148;2024-03-08T11:51:12;45.67;;;25.30;;
71303;SDS011;59091;47.446;19.148;2024-03-08T11:53:39;49.40;;;26.35;;
71303;SDS011;59091;47.446;19.148;2024-03-08T11:56:14;46.88;;;24.98;;
71303;SDS011;59091;47.446;19.148;2024-03-08T11:58:40;45.03;;;23.90;;
71303;SDS011;59091;47.446;19.148;2024-03-08T12:01:10;38.90;;;22.20;;
71303;SDS011;59091;47.446;19.148;2024-03-08T12:03:40;35.30;;;21.00;;
71303;SDS011;59091;47.446;19.148;2024-03-08T12:06:07;33.40;;;20.52;;
71303;SDS011;59091;47.446;19.148;2024-03-08T12:08:35;33.70;;;21.00;;
71303;SDS011;59091;47.446;19.148;2024-03-08T12:11:00;28.42;;;17.52;;
71303;SDS011;59091;47.446;19.148;2024-03-08T12:13:26;28.33;;;17.52;;
71303;SDS011;59091;47.446;19.148;2024-03-08T12:15:59;19.88;;;14.27;;
71303;SDS011;59091;47.446;19.148;2024-03-08T12:18:28;24.10;;;15.43;;
71303;SDS011;59091;47.446;19.148;2024-03-08T12:21:04;23.73;;;16.05;;
71303;SDS011;59091;47.446;19.148;2024-03-08T12:23:37;25.90;;;16.75;;
71303;SDS011;59091;47.446;19.148;2024-03-08T12:26:25;24.30;;;16.00;;
71303;SDS011;59091;47.446;19.148;2024-03-08T12:28:51;24.83;;;14.20;;
71303;SDS011;59091;47.446;19.148;2024-03-08T12:31:17;21.58;;;14.60;;
71303;SDS011;59091;47.446;19.148;2024-03-08T12:36:18;24.42;;;15.60;;
71303;SDS011;59091;47.446;19.148;2024-03-08T12:38:46;24.55;;;15.57;;
71303;SDS011;59091;47.446;19.148;2024-03-08T12:41:15;23.27;;;14.95;;
71303;SDS011;59091;47.446;19.148;2024-03-08T12:43:42;24.08;;;15.65;;
71303;SDS011;59091;47.446;19.148;2024-03-08T12:46:13;23.38;;;15.85;;
71303;SDS011;59091;47.446;19.148;2024-03-08T12:48:43;19.48;;;14.35;;
71303;SDS011;59091;47.446;19.148;2024-03-08T12:51:12;21.40;;;14.95;;
71303;SDS011;59091;47.446;19.148;2024-03-08T12:53:38;20.52;;;12.85;;
71303;SDS011;59091;47.446;19.148;2024-03-08T12:56:06;17.60;;;12.02;;
71303;SDS011;59091;47.446;19.148;2024-03-08T12:58:34;18.58;;;12.35;;
71303;SDS011;59091;47.446;19.148;2024-03-08T13:01:01;17.05;;;11.55;;
71303;SDS011;59091;47.446;19.148;2024-03-08T13:03:29;17.13;;;11.48;;
71303;SDS011;59091;47.446;19.148;2024-03-08T13:05:56;15.75;;;11.65;;
71303;SDS011;59091;47.446;19.148;2024-03-08T13:08:22;18.60;;;13.02;;
71303;SDS011;59091;47.446;19.148;2024-03-08T13:10:50;31.30;;;17.45;;
71303;SDS011;59091;47.446;19.148;2024-03-08T13:13:16;32.72;;;19.10;;
71303;SDS011;59091;47.446;19.148;2024-03-08T13:15:42;32.40;;;19.52;;
71303;SDS011;59091;47.446;19.148;2024-03-08T13:18:08;40.95;;;21.95;;
71303;SDS011;59091;47.446;19.148;2024-03-08T13:20:34;34.63;;;19.65;;
71303;SDS011;59091;47.446;19.148;2024-03-08T13:23:03;34.30;;;20.38;;
71303;SDS011;59091;47.446;19.148;2024-03-08T13:25:30;36.70;;;20.02;;
71303;SDS011;59091;47.446;19.148;2024-03-08T13:27:56;37.97;;;20.38;;
71303;SDS011;59091;47.446;19.148;2024-03-08T13:30:24;36.35;;;20.85;;
71303;SDS011;59091;47.446;19.148;2024-03-08T13:32:52;39.55;;;20.45;;
71303;SDS011;59091;47.446;19.148;2024-03-08T13:35:19;37.85;;;20.98;;
71303;SDS011;59091;47.446;19.148;2024-03-08T13:37:49;43.58;;;25.38;;
71303;SDS011;59091;47.446;19.148;2024-03-08T13:40:16;39.33;;;20.88;;
71303;SDS011;59091;47.446;19.148;2024-03-08T13:42:45;41.75;;;21.30;;
71303;SDS011;59091;47.446;19.148;2024-03-08T13:45:11;35.95;;;20.67;;
71303;SDS011;59091;47.446;19.148;2024-03-08T13:47:40;37.95;;;21.05;;
71303;SDS011;59091;47.446;19.148;2024-03-08T13:50:06;38.47;;;20.30;;
71303;SDS011;59091;47.446;19.148;2024-03-08T13:52:36;34.78;;;19.80;;
71303;SDS011;59091;47.446;19.148;2024-03-08T13:55:03;36.00;;;19.08;;
71303;SDS011;59091;47.446;19.148;2024-03-08T13:57:30;35.60;;;21.33;;
71303;SDS011;59091;47.446;19.148;2024-03-08T13:59:56;38.97;;;21.80;;
71303;SDS011;59091;47.446;19.148;2024-03-08T14:02:22;36.47;;;20.83;;
71303;SDS011;59091;47.446;19.148;2024-03-08T14:04:52;40.38;;;21.52;;
71303;SDS011;59091;47.446;19.148;2024-03-08T14:07:19;36.55;;;20.67;;
71303;SDS011;59091;47.446;19.148;2024-03-08T14:09:45;35.03;;;19.90;;
71303;SDS011;59091;47.446;19.148;2024-03-08T14:12:10;36.53;;;20.67;;
71303;SDS011;59091;47.446;19.148;2024-03-08T14:14:36;36.75;;;20.75;;
71303;SDS011;59091;47.446;19.148;2024-03-08T14:17:02;39.60;;;21.25;;
71303;SDS011;59091;47.446;19.148;2024-03-08T14:19:28;34.90;;;21.13;;
71303;SDS011;59091;47.446;19.148;2024-03-08T14:21:56;32.47;;;19.00;;